Archival Weather

Half Moon Bay

Half Moon Bay, California (KHAF)

Report from: Thursday, September 21, 2023 9:15 AM PDT
Current time: Sunday, July 14, 2024 3:28 AM PDT

Current weather – Weather history – Daily summaries
Weather forecast

Present weatherHaze
Temperature16.0°C (60.8°F)
Dew point11.0°C (51.8°F)
Winds 3 kts (1.5 m/s, 3.5 mph) Vrb
Winds variableWinds variable
Visibility5 mi. (8 km)
Clouds Sky clear
Altimeter29.91 in.Hg (1013 mB)
Relative humidity72 %
Density altitude316 ft. (96 m)
Remarks Fully automated report
Automated weather observing station with precipitation discriminator
Flight conditions Visual Meteorological Conditions
Raw dataKHAF 211615Z AUTO VRB03KT 5SM HZ CLR 16/11 A2991 RMK AO2
An error has occurred. This application may no longer respond until reloaded. Reload 🗙